Time;durP1;ratioP1;P1;durP2;ratioP2;P2;SDS_P1;SDS_P2;PMS_P1;PMS_P2;Temp;Humidity;BMP_temperature;BMP_pressure;BME280_temperature;BME280_humidity;BME280_pressure;Samples;Min_cycle;Max_cycle;Signal;HPM_P1;HPM_P2
2021/04/19 00:02:00;;;;;;;7.35;4.97;;;8.10;82.10;;;;;;4895400;29;20072;-65
2021/04/19 00:04:26;;;;;;;9.13;4.68;;;8.10;82.30;;;;;;4895424;29;20024;-67
2021/04/19 00:06:52;;;;;;;8.57;5.20;;;8.10;82.60;;;;;;4894928;29;20029;-67
2021/04/19 00:09:17;;;;;;;9.38;5.13;;;8.00;82.60;;;;;;4895980;29;20036;-67
2021/04/19 00:11:43;;;;;;;11.77;4.85;;;8.00;82.80;;;;;;4895501;29;20056;-70
2021/04/19 00:14:09;;;;;;;11.27;6.00;;;8.00;83.00;;;;;;4895404;29;20024;-69
2021/04/19 00:16:34;;;;;;;7.93;5.30;;;8.00;83.10;;;;;;4909758;29;20035;-69
2021/04/19 00:19:00;;;;;;;7.78;5.38;;;8.00;83.40;;;;;;4908897;29;20029;-69
2021/04/19 00:21:25;;;;;;;11.00;5.90;;;7.90;83.50;;;;;;4895521;29;20120;-68
2021/04/19 00:23:51;;;;;;;7.50;5.30;;;7.90;83.80;;;;;;4894867;29;20029;-67
2021/04/19 00:26:17;;;;;;;7.38;5.15;;;7.90;83.70;;;;;;4894056;29;20028;-66
2021/04/19 00:28:43;;;;;;;9.60;5.50;;;7.90;83.80;;;;;;4895846;29;20032;-70
2021/04/19 00:31:09;;;;;;;13.38;5.90;;;7.90;83.80;;;;;;4894481;29;20028;-67
2021/04/19 00:33:34;;;;;;;7.28;5.45;;;7.80;83.80;;;;;;4911549;29;20031;-68
2021/04/19 00:36:00;;;;;;;10.07;6.50;;;7.80;84.10;;;;;;4897599;29;20112;-68
2021/04/19 00:38:26;;;;;;;11.18;6.47;;;7.80;84.40;;;;;;4897311;29;20474;-66
2021/04/19 00:40:53;;;;;;;8.90;5.85;;;7.70;84.50;;;;;;4898841;29;20060;-64
2021/04/19 00:43:20;;;;;;;8.95;6.13;;;7.70;84.90;;;;;;4898928;29;20093;-67
2021/04/19 00:45:51;;;;;;;11.07;6.03;;;7.60;84.90;;;;;;4897361;29;20029;-68
2021/04/19 00:48:18;;;;;;;9.80;5.80;;;7.60;85.20;;;;;;4897321;29;20028;-67
2021/04/19 00:50:44;;;;;;;11.73;6.18;;;7.60;85.40;;;;;;4898402;29;20044;-68
2021/04/19 00:53:10;;;;;;;11.05;6.00;;;7.50;85.60;;;;;;4898331;29;20092;-68
2021/04/19 00:55:36;;;;;;;12.85;5.75;;;7.50;85.90;;;;;;4898882;29;20103;-68
2021/04/19 00:58:02;;;;;;;9.68;6.53;;;7.50;86.10;;;;;;4898233;29;20033;-66
2021/04/19 01:00:31;;;;;;;10.63;6.90;;;7.40;86.10;;;;;;4897345;29;20041;-64
2021/04/19 01:02:57;;;;;;;11.02;7.05;;;7.40;86.30;;;;;;4912539;29;20044;-65
2021/04/19 01:05:29;;;;;;;8.85;6.45;;;7.40;86.50;;;;;;4913464;29;20533;-64
2021/04/19 01:07:55;;;;;;;10.18;6.82;;;7.40;87.00;;;;;;4895884;29;20465;-67
2021/04/19 01:10:21;;;;;;;12.00;6.80;;;7.40;87.00;;;;;;4898254;29;20033;-68
2021/04/19 01:12:47;;;;;;;13.27;6.90;;;7.40;87.40;;;;;;4898293;29;20021;-68
2021/04/19 01:15:16;;;;;;;11.82;6.95;;;7.40;87.50;;;;;;4896281;29;20040;-65
2021/04/19 01:17:43;;;;;;;11.32;7.43;;;7.40;87.70;;;;;;4897273;29;20520;-68
2021/04/19 01:20:10;;;;;;;10.68;6.93;;;7.40;88.00;;;;;;4897139;29;20128;-67
2021/04/19 01:22:37;;;;;;;11.23;7.03;;;7.30;87.80;;;;;;4896171;29;20043;-68
2021/04/19 01:25:09;;;;;;;10.88;7.07;;;7.40;88.00;;;;;;4897817;29;20386;-69
2021/04/19 01:27:35;;;;;;;11.90;6.75;;;7.30;88.00;;;;;;4895919;29;20029;-68
2021/04/19 01:30:03;;;;;;;10.70;7.40;;;7.30;88.00;;;;;;4897831;29;20393;-65
2021/04/19 01:32:28;;;;;;;13.55;7.40;;;7.30;88.20;;;;;;4898059;29;20031;-65
2021/04/19 01:34:54;;;;;;;13.50;7.35;;;7.30;88.30;;;;;;4896250;29;20028;-64
2021/04/19 01:37:19;;;;;;;12.60;7.07;;;7.20;88.50;;;;;;4896649;29;20035;-65
2021/04/19 01:39:45;;;;;;;10.68;7.13;;;7.20;88.50;;;;;;4896825;29;20093;-66
2021/04/19 01:42:11;;;;;;;10.95;7.72;;;7.20;88.60;;;;;;4927265;29;20032;-65
2021/04/19 01:44:37;;;;;;;9.80;6.35;;;7.20;88.80;;;;;;4912113;29;20430;-65
2021/04/19 01:47:03;;;;;;;11.23;6.93;;;7.10;89.00;;;;;;4897298;29;20112;-64
2021/04/19 01:49:30;;;;;;;9.98;6.63;;;7.00;89.00;;;;;;4896466;29;20522;-66
2021/04/19 01:51:56;;;;;;;13.35;7.22;;;7.00;89.20;;;;;;4897365;29;20040;-68
2021/04/19 01:54:22;;;;;;;11.45;7.57;;;7.00;89.30;;;;;;4896139;29;20031;-65
2021/04/19 01:56:47;;;;;;;10.27;7.05;;;7.00;89.50;;;;;;4894850;29;20036;-64
2021/04/19 01:59:13;;;;;;;15.55;7.90;;;7.00;89.70;;;;;;4897480;29;20036;-65
2021/04/19 02:01:50;;;;;;;15.50;9.32;;;6.90;89.90;;;;;;4897194;29;20048;-66
2021/04/19 02:04:26;;;;;;;10.35;7.50;;;6.90;90.00;;;;;;4896949;29;20032;-67
2021/04/19 02:07:28;;;;;;;10.57;7.18;;;6.80;90.00;;;;;;4897328;29;20030;-65
2021/04/19 02:10:07;;;;;;;8.52;6.55;;;6.80;90.00;;;;;;4891604;29;20096;-66
2021/04/19 02:12:45;;;;;;;11.57;6.70;;;6.70;90.00;;;;;;4896998;29;20031;-67
2021/04/19 02:15:17;;;;;;;12.43;7.13;;;6.70;90.10;;;;;;4895412;29;20028;-64
2021/04/19 02:18:22;;;;;;;10.77;7.03;;;6.60;90.30;;;;;;4896801;29;20053;-68
2021/04/19 02:20:57;;;;;;;11.80;7.63;;;6.60;90.40;;;;;;4878397;29;20684;-65
2021/04/19 02:23:36;;;;;;;18.08;8.20;;;6.50;90.40;;;;;;4896402;29;20041;-64
2021/04/19 02:26:12;;;;;;;13.63;8.07;;;6.50;90.50;;;;;;4896726;29;20025;-69
2021/04/19 02:29:00;;;;;;;10.30;7.35;;;6.40;90.70;;;;;;4896871;29;20513;-67
2021/04/19 02:31:29;;;;;;;12.85;7.82;;;6.40;90.80;;;;;;4896165;29;20036;-64
2021/04/19 02:33:57;;;;;;;13.38;8.30;;;6.30;90.90;;;;;;4896351;29;20025;-67
2021/04/19 02:36:24;;;;;;;13.43;8.40;;;6.30;91.10;;;;;;4896637;29;20047;-69
2021/04/19 02:38:52;;;;;;;11.18;7.80;;;6.30;91.10;;;;;;4895486;29;20036;-65
2021/04/19 02:41:21;;;;;;;12.73;8.07;;;6.30;91.20;;;;;;4894985;29;20438;-65
2021/04/19 02:43:47;;;;;;;11.20;7.75;;;6.30;91.20;;;;;;4896465;29;20082;-67
2021/04/19 02:46:14;;;;;;;14.32;8.50;;;6.30;91.30;;;;;;4895860;29;20394;-67
2021/04/19 02:48:42;;;;;;;14.38;9.90;;;6.30;91.40;;;;;;4896607;29;20029;-65
2021/04/19 02:51:09;;;;;;;14.23;8.57;;;6.20;91.40;;;;;;4896151;29;20048;-70
2021/04/19 02:53:36;;;;;;;14.27;8.68;;;6.20;91.50;;;;;;4894128;29;20501;-65
2021/04/19 02:56:05;;;;;;;14.90;8.98;;;6.20;91.70;;;;;;4895690;29;20073;-64
2021/04/19 02:58:38;;;;;;;17.20;9.38;;;6.20;91.70;;;;;;4895860;29;20243;-65
2021/04/19 03:01:06;;;;;;;15.55;9.55;;;6.20;92.00;;;;;;4895257;29;20036;-64
2021/04/19 03:03:35;;;;;;;15.25;8.95;;;6.10;91.70;;;;;;4896542;29;20080;-65
2021/04/19 03:06:04;;;;;;;16.25;9.60;;;6.10;91.70;;;;;;4895661;29;20024;-64
2021/04/19 03:08:34;;;;;;;13.82;9.13;;;6.10;91.80;;;;;;4910834;29;20033;-65
2021/04/19 03:11:16;;;;;;;15.57;10.02;;;6.10;91.90;;;;;;4910773;29;20032;-66
2021/04/19 03:13:44;;;;;;;14.27;9.27;;;6.10;92.00;;;;;;4895600;29;20030;-67
2021/04/19 03:16:11;;;;;;;16.05;9.18;;;6.00;92.00;;;;;;4910887;29;20040;-67
2021/04/19 03:18:39;;;;;;;13.07;9.48;;;6.00;92.00;;;;;;4896429;29;20036;-64
2021/04/19 03:21:21;;;;;;;14.50;9.98;;;6.00;92.10;;;;;;4895063;29;20672;-64
2021/04/19 03:23:49;;;;;;;;;;;6.00;92.30;;;;;;4896505;29;20037;-64
2021/04/19 03:26:17;;;;;;;17.25;9.68;;;6.00;92.30;;;;;;4896566;29;19907;-64
2021/04/19 03:28:46;;;;;;;14.80;9.20;;;6.00;92.10;;;;;;4895589;29;20032;-66
2021/04/19 03:31:23;;;;;;;16.17;9.27;;;5.90;92.10;;;;;;4895910;29;20609;-66
2021/04/19 03:33:51;;;;;;;12.40;9.43;;;5.90;92.20;;;;;;4895460;29;20437;-65
2021/04/19 03:36:20;;;;;;;11.63;9.02;;;5.90;92.20;;;;;;4910294;29;20017;-66
2021/04/19 03:38:47;;;;;;;17.85;10.85;;;5.90;92.20;;;;;;4895996;29;20478;-65
2021/04/19 03:41:15;;;;;;;16.70;11.10;;;5.90;92.30;;;;;;4895259;29;20072;-66
2021/04/19 03:43:48;;;;;;;15.02;9.60;;;5.90;92.40;;;;;;4895956;29;20094;-65
2021/04/19 03:46:15;;;;;;;15.45;10.45;;;5.90;92.50;;;;;;4894791;29;20069;-68
2021/04/19 03:48:43;;;;;;;15.63;10.85;;;5.90;92.40;;;;;;4895525;29;20025;-66
2021/04/19 03:51:14;;;;;;;14.18;10.65;;;5.90;92.40;;;;;;4895808;29;20053;-68
2021/04/19 03:53:42;;;;;;;15.77;10.82;;;5.90;92.50;;;;;;4896277;29;20027;-67
2021/04/19 03:56:08;;;;;;;20.40;11.57;;;6.00;92.60;;;;;;4895121;29;20426;-68
2021/04/19 03:58:34;;;;;;;17.58;13.07;;;6.00;92.60;;;;;;4895601;29;20029;-68
2021/04/19 04:01:04;;;;;;;24.30;13.85;;;6.00;92.60;;;;;;4910230;29;20115;-64
2021/04/19 04:03:30;;;;;;;22.33;13.77;;;6.10;92.70;;;;;;4895228;29;20123;-67
2021/04/19 04:05:57;;;;;;;18.08;13.10;;;6.10;92.80;;;;;;4895478;29;20466;-64
2021/04/19 04:08:25;;;;;;;19.67;13.60;;;6.20;93.00;;;;;;4897340;29;20442;-64
2021/04/19 04:10:51;;;;;;;19.55;13.35;;;6.40;93.00;;;;;;4898272;29;20029;-66
2021/04/19 04:13:19;;;;;;;26.92;14.10;;;6.40;92.90;;;;;;4898961;29;20430;-65
2021/04/19 04:15:52;;;;;;;19.70;14.23;;;6.50;93.00;;;;;;4899027;29;20025;-65
2021/04/19 04:18:18;;;;;;;20.92;15.43;;;6.60;93.00;;;;;;4899079;29;20024;-67
2021/04/19 04:20:44;;;;;;;22.13;14.18;;;6.70;92.90;;;;;;4899017;29;20112;-67
2021/04/19 04:23:10;;;;;;;22.65;14.25;;;6.80;92.90;;;;;;4898919;29;20127;-65
2021/04/19 04:25:36;;;;;;;20.27;14.48;;;6.90;92.90;;;;;;4898954;29;20033;-68
2021/04/19 04:28:04;;;;;;;25.70;14.75;;;6.90;92.80;;;;;;4899018;29;20024;-67
2021/04/19 04:30:31;;;;;;;24.67;15.75;;;7.00;92.80;;;;;;4898071;29;20099;-67
2021/04/19 04:32:56;;;;;;;19.95;14.55;;;7.10;92.70;;;;;;4899108;29;20056;-68
2021/04/19 04:35:23;;;;;;;20.40;13.90;;;7.20;92.60;;;;;;4898536;29;20477;-68
2021/04/19 04:37:49;;;;;;;19.05;13.77;;;7.30;92.50;;;;;;4898191;29;20496;-65
2021/04/19 04:40:15;;;;;;;21.80;13.48;;;7.30;92.30;;;;;;4898534;29;20029;-67
2021/04/19 04:42:43;;;;;;;21.23;13.15;;;7.40;92.20;;;;;;4898129;29;20080;-67
2021/04/19 04:45:09;;;;;;;22.95;13.40;;;7.50;92.00;;;;;;4898026;29;20049;-65
2021/04/19 04:47:59;;;;;;;18.70;12.45;;;7.50;91.90;;;;;;4898741;29;20374;-68
2021/04/19 04:50:46;;;;;;;15.77;12.52;;;7.50;91.80;;;;;;4898414;29;20089;-66
2021/04/19 04:53:15;;;;;;;15.43;11.55;;;7.50;91.60;;;;;;4896879;29;20500;-66
2021/04/19 04:55:42;;;;;;;17.70;12.40;;;7.50;91.60;;;;;;4895852;29;20049;-67
2021/04/19 04:58:10;;;;;;;19.00;12.90;;;7.40;91.70;;;;;;4897915;29;20103;-66
2021/04/19 05:00:37;;;;;;;23.13;13.50;;;7.40;91.80;;;;;;4898256;29;20024;-68
2021/04/19 05:03:03;;;;;;;20.63;12.93;;;7.40;91.90;;;;;;4898669;29;20041;-66
2021/04/19 05:05:29;;;;;;;18.60;12.90;;;7.40;92.00;;;;;;4897571;29;20033;-68
2021/04/19 05:07:56;;;;;;;20.50;13.50;;;7.50;91.90;;;;;;4898159;29;20025;-67
2021/04/19 05:10:22;;;;;;;19.40;13.30;;;7.50;92.10;;;;;;4898303;29;20061;-65
2021/04/19 05:12:47;;;;;;;19.08;13.60;;;7.40;92.10;;;;;;4897059;29;20075;-67
2021/04/19 05:15:13;;;;;;;17.02;13.23;;;7.50;92.20;;;;;;4896722;29;20031;-66
2021/04/19 05:17:41;;;;;;;38.25;13.70;;;7.60;92.30;;;;;;4898133;29;20039;-67
2021/04/19 05:20:07;;;;;;;16.25;13.23;;;7.60;92.20;;;;;;4927165;29;20394;-65
2021/04/19 05:22:33;;;;;;;17.33;12.90;;;7.60;92.20;;;;;;4898301;29;20442;-68
2021/04/19 05:24:59;;;;;;;16.45;12.98;;;7.70;92.30;;;;;;4897793;29;20104;-64
2021/04/19 05:27:25;;;;;;;18.38;12.98;;;7.70;92.40;;;;;;4897466;29;20028;-67
2021/04/19 05:29:51;;;;;;;19.00;13.45;;;7.60;92.30;;;;;;4897580;29;20028;-66
2021/04/19 05:32:18;;;;;;;21.58;12.68;;;7.60;92.30;;;;;;4894207;29;20031;-67
2021/04/19 05:34:44;;;;;;;18.15;12.77;;;7.60;92.20;;;;;;4896126;29;20028;-67
2021/04/19 05:37:11;;;;;;;20.30;13.18;;;7.60;92.30;;;;;;4896179;29;20119;-66
2021/04/19 05:39:37;;;;;;;19.58;13.73;;;7.60;92.40;;;;;;4897776;29;20033;-68
2021/04/19 05:42:03;;;;;;;21.50;13.82;;;7.70;92.30;;;;;;4896716;29;20048;-68
2021/04/19 05:44:34;;;;;;;21.42;13.60;;;7.70;92.30;;;;;;4898072;29;20028;-70
2021/04/19 05:47:00;;;;;;;25.48;17.30;;;7.70;92.50;;;;;;4895541;29;20457;-68
2021/04/19 05:49:25;;;;;;;19.77;13.43;;;7.70;92.70;;;;;;4896430;29;20044;-66
2021/04/19 05:51:56;;;;;;;19.02;14.75;;;7.60;92.60;;;;;;4896070;29;20044;-68
2021/04/19 05:54:23;;;;;;;20.48;15.23;;;7.60;92.70;;;;;;4896072;29;20027;-68
2021/04/19 05:57:12;;;;;;;62.95;18.30;;;7.60;92.80;;;;;;4896312;29;20028;-69
2021/04/19 05:59:45;;;;;;;20.15;14.80;;;7.70;92.90;;;;;;4897759;29;20156;-70
2021/04/19 06:02:13;;;;;;;25.38;16.08;;;7.70;92.90;;;;;;4895017;29;20037;-71
2021/04/19 06:04:52;;;;;;;19.40;14.18;;;7.70;92.90;;;;;;4897666;29;20024;-69
2021/04/19 06:07:27;;;;;;;18.45;13.25;;;7.70;92.90;;;;;;4896488;29;20434;-72
2021/04/19 06:10:02;;;;;;;17.77;14.85;;;7.70;93.00;;;;;;4896424;29;20497;-73
2021/04/19 06:12:32;;;;;;;21.98;14.80;;;7.70;93.00;;;;;;4896791;29;20072;-71
2021/04/19 06:15:04;;;;;;;18.70;14.90;;;7.90;93.00;;;;;;4897603;29;20099;-70
2021/04/19 06:17:31;;;;;;;20.50;15.82;;;8.00;93.00;;;;;;4896919;29;20033;-72
2021/04/19 06:19:58;;;;;;;22.92;16.13;;;8.00;92.90;;;;;;4896985;29;20052;-71
2021/04/19 06:22:23;;;;;;;22.60;16.17;;;8.10;92.80;;;;;;4896997;29;20048;-67
2021/04/19 06:24:50;;;;;;;20.70;15.57;;;8.20;92.80;;;;;;4895737;29;20396;-67
2021/04/19 06:27:21;;;;;;;23.92;17.55;;;8.30;92.70;;;;;;4897075;29;20525;-67
2021/04/19 06:29:47;;;;;;;22.73;16.02;;;8.40;92.70;;;;;;4894187;29;20059;-65
2021/04/19 06:32:14;;;;;;;26.20;18.30;;;8.40;92.70;;;;;;4896189;29;20036;-65
2021/04/19 06:34:40;;;;;;;22.98;16.52;;;8.50;92.70;;;;;;4897071;29;20036;-67
2021/04/19 06:37:07;;;;;;;21.85;17.60;;;8.50;92.70;;;;;;4896105;29;20025;-64
2021/04/19 06:39:34;;;;;;;23.50;17.23;;;8.50;92.70;;;;;;4896796;29;20084;-66
2021/04/19 06:42:02;;;;;;;26.25;16.05;;;8.50;92.90;;;;;;4895349;29;20520;-65
2021/04/19 06:44:28;;;;;;;21.58;16.55;;;8.40;92.80;;;;;;4896247;29;20028;-68
2021/04/19 06:46:55;;;;;;;25.08;18.20;;;8.30;92.80;;;;;;4896378;29;20080;-69
2021/04/19 06:49:21;;;;;;;21.35;15.80;;;8.10;92.90;;;;;;4896392;29;20077;-67
2021/04/19 06:51:47;;;;;;;24.45;17.45;;;8.10;93.20;;;;;;4896079;29;20382;-66
2021/04/19 06:54:13;;;;;;;22.83;16.75;;;8.00;93.30;;;;;;4895610;29;20062;-67
2021/04/19 06:56:41;;;;;;;23.65;18.30;;;8.00;93.40;;;;;;4896921;29;20028;-66
2021/04/19 06:59:27;;;;;;;24.95;18.40;;;8.20;93.60;;;;;;4895588;29;20028;-69
2021/04/19 07:01:54;;;;;;;24.38;19.63;;;8.20;93.50;;;;;;4896022;29;20040;-65
2021/04/19 07:04:29;;;;;;;25.27;18.08;;;8.30;93.50;;;;;;4896748;29;20024;-65
2021/04/19 07:06:57;;;;;;;23.83;17.90;;;8.40;93.50;;;;;;4895709;29;20029;-66
2021/04/19 07:09:27;;;;;;;24.27;19.10;;;8.40;93.40;;;;;;4896666;29;20044;-67
2021/04/19 07:12:17;;;;;;;22.38;17.33;;;8.60;93.40;;;;;;4895633;29;20032;-67
2021/04/19 07:14:47;;;;;;;24.35;18.30;;;8.80;93.30;;;;;;4896452;29;20395;-69
2021/04/19 07:17:13;;;;;;;25.80;18.67;;;9.00;93.20;;;;;;4896201;29;20131;-65
2021/04/19 07:19:39;;;;;;;27.48;20.30;;;9.30;93.20;;;;;;4895763;29;20451;-67
2021/04/19 07:22:05;;;;;;;23.70;18.00;;;9.60;93.10;;;;;;4896104;29;20083;-65
2021/04/19 07:24:33;;;;;;;22.92;18.38;;;9.70;92.90;;;;;;4896415;29;20061;-67
2021/04/19 07:27:02;;;;;;;26.27;18.88;;;9.90;92.50;;;;;;4895322;29;20025;-68
2021/04/19 07:29:27;;;;;;;21.20;18.63;;;10.10;92.50;;;;;;4896276;29;20025;-67
2021/04/19 07:31:55;;;;;;;25.73;19.48;;;10.30;92.60;;;;;;4910368;29;20036;-68
2021/04/19 07:34:22;;;;;;;24.33;18.20;;;10.50;92.50;;;;;;4895691;29;20217;-65
2021/04/19 07:36:49;;;;;;;23.15;17.35;;;10.70;92.40;;;;;;4895831;29;20040;-65
2021/04/19 07:39:17;;;;;;;24.25;16.88;;;10.80;92.20;;;;;;4894933;29;20044;-68
2021/04/19 07:41:46;;;;;;;21.10;18.10;;;10.90;91.90;;;;;;4895506;29;20334;-68
2021/04/19 07:44:31;;;;;;;22.65;18.25;;;11.00;91.90;;;;;;4899984;29;20052;-66
2021/04/19 07:47:19;;;;;;;26.60;17.73;;;11.20;91.50;;;;;;4899637;29;20024;-68
2021/04/19 07:50:11;;;;;;;25.65;19.02;;;11.30;91.30;;;;;;4899498;29;20044;-66
2021/04/19 07:52:48;;;;;;;;;;;11.40;91.60;;;;;;4900548;29;20032;-67
2021/04/19 07:55:21;;;;;;;20.92;16.70;;;11.40;91.60;;;;;;4913913;29;19917;-68
2021/04/19 07:57:48;;;;;;;22.90;17.67;;;11.40;91.70;;;;;;4899635;29;20024;-68
2021/04/19 08:00:35;;;;;;;21.45;16.63;;;11.50;91.90;;;;;;4899853;29;20040;-66
2021/04/19 08:03:06;;;;;;;21.48;17.73;;;11.60;91.90;;;;;;4899115;29;20091;-68
2021/04/19 08:05:44;;;;;;;21.63;17.58;;;11.70;92.00;;;;;;4899776;29;20548;-68
2021/04/19 08:08:10;;;;;;;24.00;18.55;;;11.80;92.20;;;;;;4899560;29;20052;-68
2021/04/19 08:10:39;;;;;;;19.40;16.73;;;11.80;92.10;;;;;;4899650;29;20029;-69
2021/04/19 08:13:13;;;;;;;18.00;16.13;;;11.80;92.20;;;;;;4899533;29;20497;-68
2021/04/19 08:15:43;;;;;;;21.30;16.40;;;11.90;92.10;;;;;;4897996;29;20055;-67
2021/04/19 08:18:14;;;;;;;17.83;15.48;;;12.10;91.60;;;;;;4899664;29;20021;-69
2021/04/19 08:20:57;;;;;;;17.58;15.77;;;12.20;91.50;;;;;;4899416;29;20037;-69
2021/04/19 08:23:23;;;;;;;16.63;14.77;;;12.30;91.20;;;;;;4897686;29;20520;-68
2021/04/19 08:25:53;;;;;;;17.77;15.32;;;12.20;91.00;;;;;;4899179;29;20108;-68
2021/04/19 08:28:20;;;;;;;16.05;14.40;;;12.30;90.80;;;;;;4899439;29;20115;-69
2021/04/19 08:30:52;;;;;;;16.02;14.32;;;12.10;90.50;;;;;;4898444;29;20533;-67
2021/04/19 08:33:18;;;;;;;15.38;13.50;;;12.00;90.70;;;;;;4899703;29;20048;-68
2021/04/19 08:35:46;;;;;;;15.68;14.10;;;11.90;91.00;;;;;;4898918;29;20029;-68
2021/04/19 08:38:12;;;;;;;14.45;12.95;;;12.00;91.00;;;;;;4897400;29;20035;-65
2021/04/19 08:40:40;;;;;;;16.30;13.98;;;12.10;90.80;;;;;;4898931;29;20027;-65
2021/04/19 08:43:11;;;;;;;14.85;13.30;;;12.20;90.70;;;;;;4898792;29;20040;-65
2021/04/19 08:45:41;;;;;;;14.90;13.27;;;12.30;90.40;;;;;;4898356;29;20028;-67
2021/04/19 08:48:12;;;;;;;14.13;12.43;;;12.20;90.20;;;;;;4898533;29;20028;-67
2021/04/19 08:50:46;;;;;;;15.25;13.30;;;12.30;89.40;;;;;;4896458;29;20063;-66
2021/04/19 08:53:13;;;;;;;15.10;12.55;;;12.30;89.20;;;;;;4898280;29;20043;-66
2021/04/19 08:55:41;;;;;;;13.73;12.18;;;12.10;89.70;;;;;;4897647;29;20068;-68
2021/04/19 08:58:09;;;;;;;13.32;11.95;;;12.10;90.20;;;;;;4897136;29;20103;-66
2021/04/19 09:00:37;;;;;;;14.82;12.45;;;12.10;90.20;;;;;;4898585;29;20024;-66
2021/04/19 09:03:03;;;;;;;15.63;12.73;;;12.10;90.20;;;;;;4896573;29;20036;-66
2021/04/19 09:05:29;;;;;;;14.38;12.88;;;12.20;90.10;;;;;;4898715;29;20056;-66
2021/04/19 09:08:06;;;;;;;14.15;12.68;;;12.30;90.20;;;;;;4898097;29;20481;-66
2021/04/19 09:10:56;;;;;;;13.43;11.70;;;12.40;90.20;;;;;;4897985;29;20052;-66
2021/04/19 09:13:24;;;;;;;12.52;11.18;;;12.60;90.00;;;;;;4898631;29;20073;-67
2021/04/19 09:15:52;;;;;;;13.38;11.90;;;12.70;89.30;;;;;;4898249;29;20032;-66
2021/04/19 09:18:20;;;;;;;13.05;11.68;;;12.90;89.40;;;;;;4896513;29;20020;-66
2021/04/19 09:20:47;;;;;;;14.15;12.73;;;13.10;89.10;;;;;;4897963;29;20537;-64
2021/04/19 09:23:17;;;;;;;13.80;12.40;;;13.40;89.30;;;;;;4898245;29;20041;-65
2021/04/19 09:25:44;;;;;;;13.23;11.75;;;13.60;88.30;;;;;;4897879;29;20021;-66
2021/04/19 09:28:09;;;;;;;16.60;11.57;;;13.80;87.90;;;;;;4912849;29;20240;-68
2021/04/19 09:30:37;;;;;;;12.68;11.43;;;14.00;87.60;;;;;;4897635;29;20045;-66
2021/04/19 09:33:03;;;;;;;14.10;10.95;;;14.20;86.60;;;;;;4897887;29;20056;-66
2021/04/19 09:38:14;;;;;;;11.02;9.90;;;14.40;85.20;;;;;;4897259;29;20043;-66
2021/04/19 09:40:54;;;;;;;10.35;9.35;;;14.50;84.80;;;;;;4897825;29;20024;-66
2021/04/19 09:43:31;;;;;;;10.05;9.05;;;14.60;84.00;;;;;;4897782;29;20123;-67
2021/04/19 09:46:01;;;;;;;10.30;9.23;;;14.80;83.80;;;;;;4897047;29;20028;-65
2021/04/19 09:48:34;;;;;;;10.02;9.02;;;15.00;83.50;;;;;;4897710;29;20489;-67
2021/04/19 09:51:20;;;;;;;9.00;8.10;;;15.10;80.70;;;;;;4897339;29;20053;-66
2021/04/19 09:54:16;;;;;;;9.88;8.88;;;14.90;81.10;;;;;;4896905;29;20040;-66
2021/04/19 09:56:50;;;;;;;8.90;8.02;;;14.90;81.30;;;;;;4893469;29;20033;-66
2021/04/19 09:59:23;;;;;;;9.15;8.25;;;15.00;81.90;;;;;;4896879;29;20029;-68
2021/04/19 10:01:50;;;;;;;9.82;8.82;;;15.10;82.80;;;;;;4897353;29;20029;-67
2021/04/19 10:04:17;;;;;;;9.77;8.77;;;15.30;83.00;;;;;;4897590;29;20120;-68
2021/04/19 10:06:52;;;;;;;9.95;8.95;;;15.60;82.20;;;;;;4896679;29;20028;-66
2021/04/19 10:09:26;;;;;;;10.27;9.27;;;15.70;81.00;;;;;;4897510;29;20037;-72
2021/04/19 10:12:06;;;;;;;9.63;8.65;;;15.80;80.50;;;;;;4897363;29;20161;-66
2021/04/19 10:14:39;;;;;;;9.88;8.88;;;15.80;78.80;;;;;;4896755;29;20039;-69
2021/04/19 10:17:16;;;;;;;10.27;9.02;;;15.70;77.00;;;;;;4897088;29;20040;-69
2021/04/19 10:19:42;;;;;;;10.40;9.43;;;15.70;79.20;;;;;;4897221;29;20039;-65
2021/04/19 10:22:09;;;;;;;10.45;9.48;;;15.70;77.90;;;;;;4896283;29;20032;-68
2021/04/19 10:24:48;;;;;;;9.80;8.80;;;15.70;77.20;;;;;;4897214;29;20028;-68
2021/04/19 10:27:13;;;;;;;9.05;8.25;;;15.70;77.30;;;;;;4896594;29;20378;-67
2021/04/19 10:29:39;;;;;;;9.38;8.50;;;15.70;76.30;;;;;;4895619;29;20033;-66
2021/04/19 10:32:05;;;;;;;9.43;8.55;;;15.70;77.10;;;;;;4896868;29;20036;-68
2021/04/19 10:34:32;;;;;;;10.48;9.48;;;15.80;77.10;;;;;;4895022;29;20107;-66
2021/04/19 10:37:04;;;;;;;9.50;8.60;;;15.90;77.20;;;;;;4911294;29;20111;-67
2021/04/19 10:39:35;;;;;;;8.95;8.15;;;15.90;77.60;;;;;;4897022;29;20457;-68
2021/04/19 10:42:05;;;;;;;6.50;5.90;;;16.00;75.10;;;;;;4896051;29;20506;-67
2021/04/19 10:44:37;;;;;;;8.47;7.63;;;16.00;75.00;;;;;;4895496;29;20072;-67
2021/04/19 10:47:13;;;;;;;8.48;7.70;;;16.30;75.30;;;;;;4896681;29;20039;-68
2021/04/19 10:49:40;;;;;;;9.07;7.80;;;16.50;74.80;;;;;;4896000;29;20033;-67
2021/04/19 10:52:08;;;;;;;8.50;7.70;;;16.80;74.90;;;;;;4896508;29;20484;-68
2021/04/19 10:54:41;;;;;;;8.07;7.38;;;17.00;74.70;;;;;;4895327;29;20468;-68
2021/04/19 10:57:18;;;;;;;7.80;7.00;;;17.10;71.70;;;;;;4895419;29;20478;-68
2021/04/19 10:59:44;;;;;;;7.80;7.10;;;17.10;72.50;;;;;;4896243;29;20032;-68
2021/04/19 11:02:11;;;;;;;9.10;7.32;;;17.10;71.60;;;;;;4896008;29;20112;-68
2021/04/19 11:04:37;;;;;;;7.82;7.03;;;17.00;71.90;;;;;;4896551;29;20590;-69
2021/04/19 11:07:28;;;;;;;8.43;7.63;;;17.00;72.50;;;;;;4896109;29;20033;-68
2021/04/19 11:10:16;;;;;;;7.38;6.68;;;17.00;71.70;;;;;;4895450;29;20029;-67
2021/04/19 11:12:57;;;;;;;7.63;6.93;;;16.90;71.50;;;;;;4896648;29;20481;-68
2021/04/19 11:15:30;;;;;;;7.80;6.00;;;16.90;71.10;;;;;;4896479;29;20071;-65
2021/04/19 11:17:56;;;;;;;9.32;6.15;;;16.90;71.40;;;;;;4895089;29;20048;-66
2021/04/19 11:20:24;;;;;;;7.15;6.38;;;16.90;71.20;;;;;;4896069;29;20040;-69
2021/04/19 11:22:50;;;;;;;6.70;6.10;;;17.00;70.70;;;;;;4892486;29;20493;-69
2021/04/19 11:25:19;;;;;;;7.80;6.40;;;17.10;70.20;;;;;;4893445;29;20060;-73
2021/04/19 11:27:53;;;;;;;7.07;6.40;;;17.10;70.30;;;;;;4906782;29;20031;-71
2021/04/19 11:30:30;;;;;;;7.07;5.93;;;17.20;69.90;;;;;;4891561;29;20047;-72
2021/04/19 11:33:09;;;;;;;7.35;6.38;;;17.30;69.40;;;;;;4895001;29;20470;-71
2021/04/19 11:35:43;;;;;;;6.50;5.90;;;17.40;67.80;;;;;;4896357;29;20036;-72
2021/04/19 11:38:22;;;;;;;6.05;5.55;;;17.40;67.50;;;;;;4894079;29;20103;-72
2021/04/19 11:40:50;;;;;;;6.57;5.80;;;17.30;67.10;;;;;;4894530;29;20033;-73
2021/04/19 11:43:21;;;;;;;7.20;5.60;;;17.10;69.80;;;;;;4893346;29;20036;-73
2021/04/19 11:45:57;;;;;;;6.57;5.93;;;16.90;70.50;;;;;;4909299;29;20021;-72
2021/04/19 11:48:23;;;;;;;7.20;6.50;;;16.70;71.70;;;;;;4895900;29;20069;-74
2021/04/19 11:50:48;;;;;;;6.88;6.28;;;16.40;72.70;;;;;;4895926;29;20120;-71
2021/04/19 11:53:22;;;;;;;7.20;6.50;;;16.30;72.90;;;;;;4894686;29;20035;-73
2021/04/19 11:55:48;;;;;;;7.63;6.85;;;16.20;73.10;;;;;;4894967;29;20073;-74
2021/04/19 11:58:14;;;;;;;7.32;6.63;;;16.10;73.30;;;;;;4894727;29;20545;-71
2021/04/19 12:00:39;;;;;;;7.47;6.70;;;16.10;71.30;;;;;;4895488;29;20033;-71
2021/04/19 12:03:06;;;;;;;7.20;6.60;;;16.10;72.30;;;;;;4910336;29;20075;-74
2021/04/19 12:05:32;;;;;;;7.30;6.63;;;16.10;73.10;;;;;;4909961;29;20077;-72
2021/04/19 12:07:58;;;;;;;7.95;7.13;;;16.20;74.30;;;;;;4891938;29;20033;-74
2021/04/19 12:10:24;;;;;;;7.88;6.82;;;16.30;73.30;;;;;;4894324;29;20096;-72
2021/04/19 12:12:49;;;;;;;7.80;7.10;;;16.40;72.50;;;;;;4894627;29;20098;-68
2021/04/19 12:15:15;;;;;;;8.10;7.03;;;16.50;72.70;;;;;;4895755;29;20036;-71
2021/04/19 12:17:41;;;;;;;7.93;6.97;;;16.50;74.00;;;;;;4895777;29;20024;-75
2021/04/19 12:20:07;;;;;;;7.65;6.93;;;16.50;72.80;;;;;;4894466;29;20528;-69
2021/04/19 12:22:32;;;;;;;7.80;6.95;;;16.50;72.30;;;;;;4894568;29;20040;-69
2021/04/19 12:24:58;;;;;;;7.93;7.13;;;16.50;71.60;;;;;;4895135;29;20031;-68
2021/04/19 12:27:23;;;;;;;7.63;6.93;;;16.50;71.90;;;;;;4894090;29;20033;-72
2021/04/19 12:29:49;;;;;;;8.57;7.78;;;16.60;72.00;;;;;;4898003;29;20033;-72
2021/04/19 12:32:15;;;;;;;7.60;6.90;;;16.60;72.20;;;;;;4898202;29;20048;-70
2021/04/19 12:34:41;;;;;;;7.78;6.95;;;16.60;72.40;;;;;;4912434;29;20063;-72
2021/04/19 12:37:06;;;;;;;7.57;6.80;;;16.60;73.10;;;;;;4898068;29;20115;-71
2021/04/19 12:39:32;;;;;;;7.85;7.15;;;16.60;72.10;;;;;;4898599;29;20378;-71
2021/04/19 12:41:58;;;;;;;7.93;7.07;;;16.60;71.70;;;;;;4898041;29;20490;-71
2021/04/19 12:44:24;;;;;;;7.95;7.25;;;16.60;71.10;;;;;;4897910;29;20024;-70
2021/04/19 12:46:54;;;;;;;8.27;6.97;;;16.60;70.10;;;;;;4896667;29;20463;-73
2021/04/19 12:49:21;;;;;;;8.40;7.60;;;16.70;70.00;;;;;;4897313;29;20029;-71
2021/04/19 12:51:48;;;;;;;8.18;7.38;;;16.80;69.50;;;;;;4898364;29;20504;-70
2021/04/19 12:54:15;;;;;;;9.02;8.18;;;17.00;69.60;;;;;;4898700;29;20473;-69
2021/04/19 12:56:41;;;;;;;9.98;8.27;;;17.20;68.90;;;;;;4898325;29;20103;-70